LECO/LCG METAR and TAF weather

Enter ICAO airport designator
Station Type Date Time Source
LECO METAR 2020/07/05 16:00 UTC NOAA

LECO 051600Z 36010KT 320V050 7000 BKN007 19/17 Q1023 NOSIG


Station Type Date Time Source
LECO Decoded METAR 2020/07/05 16:00 UTC NOAA

La Coruna / Alvedro, Spain (LECO) 43-18N 008-23W 103M
Jul 05, 2020 - 12:00 PM EDT / 2020.07.05 1600 UTC
Wind: from the N (360 degrees) at 12 MPH (10 KT) (direction variable):0
Visibility: 4 mile(s):0
Sky conditions: mostly cloudy
Temperature: 66 F (19 C)
Dew Point: 62 F (17 C)
Relative Humidity: 88%
Pressure (altimeter): 30.21 in. Hg (1023 hPa)
ob: LECO 051600Z 36010KT 320V050 7000 BKN007 19/17 Q1023 NOSIG
cycle: 16

Station Type Date Time Source
LECO TAF 2020/07/05 15:27 UTC NOAA

TAF LECO 051400Z 0515/0615 35009KT 9999 SCT010 SCT014 TX22/0615Z TN14/0603Z
TEMPO 0515/0524 BKN005 BKN010 BKN014
TEMPO 0600/0606 3000 -RADZ BR BKN005 BKN010 PROB40
TEMPO 0600/0606 1500 -RADZ BCFG BKN002 PROB40
TEMPO 0606/0615 02015G25KT

Example: see airport list